Schwarzach Heliport LOSS

Flugplatz Daten

Name: Schwarzach Heliport

Ident: LOSS

Lat: 47,32444382

Long: 13,15499973

Platzhöhe: 2046 ft

IataCode:

City: Schwarzach

Metar

2021/06/08 11:00
RJOO 081100Z 34008KT 9999 FEW030 SCT120 BKN150 27/12 Q1014 RMK 1CU030 3AC120 5AC150 A2995 WS 10KT LOSS AND GAIN OBS AT 1049Z ON SHORT FNA RWY32R DH8D

Taf

Gewünschte Webcam nicht vorhanden? Dann fügen Sie eine hinzu. Sie wird dann so schnell wie möglich freigeschaltet
Url: Title: